createdAt,value
2019-02-25T00:01:07.924Z,8.31
2019-02-25T00:03:34.231Z,8.29
2019-02-25T00:06:00.535Z,8.29
2019-02-25T00:08:26.860Z,8.27
2019-02-25T00:10:53.162Z,8.22
2019-02-25T00:13:19.475Z,8.13
2019-02-25T00:15:45.779Z,8.03
2019-02-25T00:18:12.091Z,8.00
2019-02-25T00:20:38.398Z,7.99
2019-02-25T00:23:04.735Z,7.97
2019-02-25T00:25:31.043Z,7.96
2019-02-25T00:27:57.351Z,7.95
2019-02-25T00:30:23.650Z,7.94
2019-02-25T00:32:49.960Z,7.91
2019-02-25T00:35:16.259Z,7.84
2019-02-25T00:37:42.584Z,7.84
2019-02-25T00:40:08.887Z,7.82
2019-02-25T00:42:35.203Z,7.81
2019-02-25T00:45:01.503Z,7.79
2019-02-25T00:47:27.807Z,7.77
2019-02-25T00:49:54.115Z,7.75
2019-02-25T00:52:20.424Z,7.75
2019-02-25T00:54:46.738Z,7.69
2019-02-25T00:57:13.045Z,7.65
2019-02-25T00:59:39.352Z,7.55
2019-02-25T01:02:05.670Z,7.49
2019-02-25T01:04:31.977Z,7.47
2019-02-25T01:06:58.284Z,7.48
2019-02-25T01:09:24.587Z,7.49
2019-02-25T01:11:50.896Z,7.48
2019-02-25T01:14:17.201Z,7.45
2019-02-25T01:16:43.756Z,7.44
2019-02-25T01:19:09.998Z,7.42
2019-02-25T01:21:36.564Z,7.38
2019-02-25T01:24:02.878Z,7.38
2019-02-25T01:26:29.193Z,7.35
2019-02-25T01:28:55.500Z,7.35
2019-02-25T01:31:21.803Z,7.34
2019-02-25T01:33:48.112Z,7.32
2019-02-25T01:36:14.416Z,7.29
2019-02-25T01:38:40.728Z,7.26
2019-02-25T01:41:07.057Z,7.20
2019-02-25T01:43:33.355Z,7.13
2019-02-25T01:45:59.666Z,7.05
2019-02-25T01:48:25.970Z,6.98
2019-02-25T01:50:52.281Z,6.98
2019-02-25T01:53:18.587Z,6.96
2019-02-25T01:55:44.899Z,6.91
2019-02-25T01:58:11.202Z,6.95
2019-02-25T02:00:37.520Z,6.94
2019-02-25T02:03:03.820Z,6.94
2019-02-25T02:05:30.129Z,6.91
2019-02-25T02:07:56.431Z,6.89
2019-02-25T02:10:22.740Z,6.86
2019-02-25T02:12:49.042Z,6.84
2019-02-25T02:15:15.425Z,6.81
2019-02-25T02:17:41.735Z,6.78
2019-02-25T02:20:08.027Z,6.78
2019-02-25T02:22:34.336Z,6.76
2019-02-25T02:25:00.641Z,6.76
2019-02-25T02:27:26.946Z,6.72
2019-02-25T02:29:53.252Z,6.66
2019-02-25T02:32:19.560Z,6.59
2019-02-25T02:34:45.871Z,6.53
2019-02-25T02:37:12.178Z,6.52
2019-02-25T02:39:38.481Z,6.52
2019-02-25T02:42:04.796Z,6.52
2019-02-25T02:44:31.102Z,6.52
2019-02-25T02:46:57.407Z,6.51
2019-02-25T02:49:23.716Z,6.50
2019-02-25T02:51:50.039Z,6.49
2019-02-25T02:54:16.337Z,6.44
2019-02-25T02:56:42.640Z,6.45
2019-02-25T02:59:08.957Z,6.43
2019-02-25T03:01:35.263Z,6.41
2019-02-25T03:04:01.569Z,6.39
2019-02-25T03:06:27.874Z,6.37
2019-02-25T03:08:54.178Z,6.36
2019-02-25T03:11:20.488Z,6.34
2019-02-25T03:13:46.797Z,6.27
2019-02-25T03:16:13.099Z,6.18
2019-02-25T03:18:39.406Z,6.10
2019-02-25T03:21:05.716Z,6.06
2019-02-25T03:23:32.026Z,6.07
2019-02-25T03:25:58.335Z,6.09
2019-02-25T03:28:24.649Z,6.09
2019-02-25T03:30:50.957Z,6.06
2019-02-25T03:33:17.293Z,6.04
2019-02-25T03:35:43.616Z,6.00
2019-02-25T03:38:09.926Z,5.98
2019-02-25T03:40:36.243Z,5.98
2019-02-25T03:43:02.542Z,5.97
2019-02-25T03:45:28.849Z,5.94
2019-02-25T03:47:55.156Z,5.93
2019-02-25T03:50:21.476Z,5.91
2019-02-25T03:52:47.766Z,5.90
2019-02-25T03:55:14.073Z,5.88
2019-02-25T03:57:40.383Z,5.87
2019-02-25T04:00:06.688Z,5.81
2019-02-25T04:02:33.000Z,5.75
2019-02-25T04:04:59.314Z,5.67
2019-02-25T04:07:25.637Z,5.67
2019-02-25T04:09:51.936Z,5.68
2019-02-25T04:12:18.246Z,5.68
2019-02-25T04:14:44.550Z,5.69
2019-02-25T04:17:10.857Z,5.70
2019-02-25T04:19:37.163Z,5.70
2019-02-25T04:22:03.471Z,5.71
2019-02-25T04:24:29.780Z,5.70
2019-02-25T04:26:56.079Z,5.70
2019-02-25T04:29:22.398Z,5.71
2019-02-25T04:31:48.709Z,5.72
2019-02-25T04:34:15.039Z,5.74
2019-02-25T04:36:41.344Z,5.74
2019-02-25T04:39:07.658Z,5.74
2019-02-25T04:41:33.959Z,5.74
2019-02-25T04:44:00.272Z,5.74
2019-02-25T04:46:26.572Z,5.67
2019-02-25T04:48:52.885Z,5.60
2019-02-25T04:51:19.212Z,5.55
2019-02-25T04:53:45.520Z,5.55
2019-02-25T04:56:11.842Z,5.57
2019-02-25T04:58:38.149Z,5.59
2019-02-25T05:01:04.452Z,5.61
2019-02-25T05:03:30.760Z,5.62
2019-02-25T05:05:57.063Z,5.62
2019-02-25T05:08:23.371Z,5.60
2019-02-25T05:10:49.675Z,5.59
2019-02-25T05:13:15.983Z,5.61
2019-02-25T05:15:42.287Z,5.62
2019-02-25T05:18:08.596Z,5.62
2019-02-25T05:20:34.900Z,5.63
2019-02-25T05:23:01.205Z,5.64
2019-02-25T05:25:27.519Z,5.62
2019-02-25T05:27:53.827Z,5.63
2019-02-25T05:30:20.137Z,5.62
2019-02-25T05:32:46.459Z,5.57
2019-02-25T05:35:12.814Z,5.55
2019-02-25T05:37:39.093Z,5.60
2019-02-25T05:40:05.395Z,5.76
2019-02-25T05:42:31.710Z,5.90
2019-02-25T05:44:58.015Z,6.09
2019-02-25T05:47:24.331Z,6.22
2019-02-25T05:49:50.632Z,6.39
2019-02-25T05:52:16.941Z,6.50
2019-02-25T05:54:43.246Z,6.56
2019-02-25T05:57:09.579Z,6.71
2019-02-25T05:59:35.888Z,7.95
2019-02-25T06:02:02.200Z,9.09
2019-02-25T06:04:28.557Z,9.52
2019-02-25T06:06:54.947Z,9.39
2019-02-25T06:09:21.181Z,9.25
2019-02-25T06:11:47.488Z,9.17
2019-02-25T06:14:13.801Z,9.12
2019-02-25T06:16:40.118Z,9.06
2019-02-25T06:19:06.432Z,9.01
2019-02-25T06:21:32.737Z,9.01
2019-02-25T06:23:59.047Z,9.14
2019-02-25T06:26:27.287Z,9.38
2019-02-25T06:28:53.672Z,9.63
2019-02-25T06:31:19.945Z,9.85
2019-02-25T06:33:47.570Z,10.06
2019-02-25T06:36:12.556Z,10.27
2019-02-25T06:38:38.941Z,10.48
2019-02-25T06:41:05.251Z,10.69
2019-02-25T06:43:31.557Z,10.89
2019-02-25T06:45:57.873Z,11.07
2019-02-25T06:48:24.186Z,11.26
2019-02-25T06:50:50.513Z,11.44
2019-02-25T06:53:16.943Z,11.59
2019-02-25T06:55:43.323Z,11.73
2019-02-25T06:58:09.628Z,11.87
2019-02-25T07:00:36.077Z,12.06
2019-02-25T07:03:02.364Z,12.25
2019-02-25T07:05:29.043Z,12.41
2019-02-25T07:07:55.389Z,12.58
2019-02-25T07:10:21.689Z,12.73
2019-02-25T07:12:47.997Z,12.88
2019-02-25T07:15:14.334Z,13.11
2019-02-25T07:17:40.645Z,13.26
2019-02-25T07:20:06.955Z,13.44
2019-02-25T07:22:33.266Z,13.61
2019-02-25T07:24:59.631Z,13.63
2019-02-25T07:27:25.940Z,13.65
2019-02-25T07:29:52.253Z,13.89
2019-02-25T07:32:18.565Z,14.18
2019-02-25T07:34:44.880Z,14.47
2019-02-25T07:37:11.190Z,14.72
2019-02-25T07:39:37.501Z,14.95
2019-02-25T07:42:03.865Z,15.17
2019-02-25T07:44:30.211Z,15.38
2019-02-25T07:46:56.528Z,15.59
2019-02-25T07:49:22.832Z,15.76
2019-02-25T07:51:49.147Z,15.94
2019-02-25T07:54:15.468Z,16.13
2019-02-25T07:56:41.781Z,16.33
2019-02-25T07:59:08.092Z,16.50
2019-02-25T08:01:34.425Z,16.68
2019-02-25T08:04:00.741Z,16.87
2019-02-25T08:06:27.057Z,17.04
2019-02-25T08:08:53.394Z,17.21
2019-02-25T08:11:21.744Z,17.37
2019-02-25T08:13:46.023Z,17.53
2019-02-25T08:16:12.329Z,17.72
2019-02-25T08:18:38.643Z,17.91
2019-02-25T08:21:04.964Z,18.06
2019-02-25T08:23:31.347Z,18.23
2019-02-25T08:25:57.657Z,18.38
2019-02-25T08:28:23.979Z,18.56
2019-02-25T08:30:50.293Z,18.75
2019-02-25T08:33:16.614Z,18.92
2019-02-25T08:35:42.939Z,19.10
2019-02-25T08:38:09.243Z,19.27
2019-02-25T08:40:35.553Z,19.45
2019-02-25T08:43:01.874Z,19.61
2019-02-25T08:45:28.183Z,19.77
2019-02-25T08:47:54.495Z,19.88
2019-02-25T08:50:20.844Z,19.79
2019-02-25T08:52:47.160Z,19.62
2019-02-25T08:55:13.464Z,19.48
2019-02-25T08:57:39.779Z,19.39
2019-02-25T09:00:06.089Z,19.20
2019-02-25T09:02:32.401Z,19.10
2019-02-25T09:04:58.713Z,19.15
2019-02-25T09:07:25.023Z,19.26
2019-02-25T09:09:51.328Z,19.56
2019-02-25T09:12:17.661Z,19.82
2019-02-25T09:14:43.970Z,19.91
2019-02-25T09:17:12.480Z,19.80
2019-02-25T09:19:36.637Z,19.61
2019-02-25T09:22:02.962Z,19.51
2019-02-25T09:24:29.256Z,19.60
2019-02-25T09:26:55.696Z,19.63
2019-02-25T09:29:22.081Z,19.77
2019-02-25T09:31:48.400Z,19.98
2019-02-25T09:34:14.703Z,20.14
2019-02-25T09:36:41.016Z,20.50
2019-02-25T09:39:07.324Z,20.86
2019-02-25T09:41:33.685Z,21.18
2019-02-25T09:44:00.000Z,21.53
2019-02-25T09:46:26.311Z,21.69
2019-02-25T09:48:52.616Z,21.60
2019-02-25T09:51:18.934Z,21.44
2019-02-25T09:53:48.016Z,21.28
2019-02-25T09:56:14.332Z,21.26
2019-02-25T09:58:40.646Z,21.25
2019-02-25T10:01:06.951Z,21.23
2019-02-25T10:03:33.270Z,21.28
2019-02-25T10:05:59.581Z,21.56
2019-02-25T10:08:25.891Z,21.86
2019-02-25T10:10:52.195Z,22.15
2019-02-25T10:13:18.532Z,22.26
2019-02-25T10:15:44.839Z,22.15
2019-02-25T10:18:11.144Z,22.00
2019-02-25T10:20:37.469Z,22.02
2019-02-25T10:23:03.777Z,22.23
2019-02-25T10:25:30.089Z,22.31
2019-02-25T10:27:56.402Z,22.35
2019-02-25T10:30:22.860Z,22.32
2019-02-25T10:32:49.167Z,22.31
2019-02-25T10:35:15.482Z,22.14
2019-02-25T10:37:43.670Z,21.89
2019-02-25T10:40:08.121Z,21.60
2019-02-25T10:42:36.100Z,21.29
2019-02-25T10:45:02.539Z,21.03
2019-02-25T10:47:27.049Z,20.77
2019-02-25T10:49:53.362Z,20.55
2019-02-25T10:52:19.667Z,20.37
2019-02-25T10:54:47.794Z,20.23
2019-02-25T10:57:12.321Z,20.13
2019-02-25T10:59:39.529Z,20.02
2019-02-25T11:02:04.929Z,19.91
2019-02-25T11:04:31.240Z,19.81
2019-02-25T11:06:58.979Z,19.75
2019-02-25T11:09:23.867Z,19.70
2019-02-25T11:11:50.688Z,19.67
2019-02-25T11:14:16.505Z,19.62
2019-02-25T11:16:44.000Z,19.54
2019-02-25T11:19:09.142Z,19.46
2019-02-25T11:21:37.518Z,19.41
2019-02-25T11:24:01.780Z,19.35
2019-02-25T11:26:28.885Z,19.27
2019-02-25T11:28:54.453Z,19.20
2019-02-25T11:31:24.042Z,19.14
2019-02-25T11:33:47.081Z,19.05
2019-02-25T11:36:15.436Z,19.01
2019-02-25T11:38:39.697Z,19.04
2019-02-25T11:41:07.167Z,19.21
2019-02-25T11:43:32.345Z,19.38
2019-02-25T11:45:58.641Z,19.54
2019-02-25T11:48:24.979Z,19.65
2019-02-25T11:50:51.317Z,19.69
2019-02-25T11:53:17.629Z,19.67
2019-02-25T11:55:43.938Z,19.64
2019-02-25T11:58:10.256Z,19.58
2019-02-25T12:00:36.564Z,19.54
2019-02-25T12:03:02.918Z,19.51
2019-02-25T12:05:29.238Z,19.48
2019-02-25T12:07:55.548Z,19.43
2019-02-25T12:10:21.868Z,19.36
2019-02-25T12:12:48.167Z,19.28
2019-02-25T12:15:14.477Z,19.24
2019-02-25T12:17:40.822Z,19.21
2019-02-25T12:20:07.101Z,19.40
2019-02-25T12:22:33.422Z,19.65
2019-02-25T12:24:59.810Z,19.91
2019-02-25T12:27:26.162Z,20.04
2019-02-25T12:29:52.470Z,20.08
2019-02-25T12:32:18.781Z,20.01
2019-02-25T12:34:45.087Z,19.95
2019-02-25T12:37:11.397Z,19.92
2019-02-25T12:39:37.707Z,19.96
2019-02-25T12:42:04.014Z,20.03
2019-02-25T12:44:30.326Z,20.14
2019-02-25T12:46:56.640Z,20.33
2019-02-25T12:49:22.941Z,20.50
2019-02-25T12:51:49.252Z,20.63
2019-02-25T12:54:15.571Z,20.66
2019-02-25T12:56:41.883Z,20.71
2019-02-25T12:59:08.244Z,20.71
2019-02-25T13:01:34.558Z,20.64
2019-02-25T13:04:00.870Z,20.54
2019-02-25T13:06:27.176Z,20.45
2019-02-25T13:08:53.486Z,20.31
2019-02-25T13:11:20.157Z,20.19
2019-02-25T13:13:46.484Z,20.03
2019-02-25T13:16:12.790Z,19.96
2019-02-25T13:18:39.095Z,19.91
2019-02-25T13:21:05.407Z,19.93
2019-02-25T13:23:31.715Z,19.95
2019-02-25T13:26:07.146Z,19.98
2019-02-25T13:28:26.225Z,19.99
2019-02-25T13:30:50.709Z,19.95
2019-02-25T13:33:17.025Z,19.94
2019-02-25T13:35:43.329Z,19.89
2019-02-25T13:38:09.660Z,19.82
2019-02-25T13:40:35.979Z,19.74
2019-02-25T13:43:02.285Z,19.64
2019-02-25T13:45:28.592Z,19.55
2019-02-25T13:47:54.902Z,19.47
2019-02-25T13:50:21.223Z,19.40
2019-02-25T13:52:48.165Z,19.33
2019-02-25T13:55:13.851Z,19.27
2019-02-25T13:57:40.161Z,19.20
2019-02-25T14:00:06.464Z,19.12
2019-02-25T14:02:32.777Z,19.03
2019-02-25T14:04:59.083Z,18.93
2019-02-25T14:07:25.398Z,18.86
2019-02-25T14:09:51.707Z,18.77
2019-02-25T14:12:18.019Z,18.66
2019-02-25T14:14:44.330Z,18.57
2019-02-25T14:17:10.693Z,18.46
2019-02-25T14:19:36.996Z,18.38
2019-02-25T14:22:03.611Z,18.29
2019-02-25T14:24:29.936Z,18.19
2019-02-25T14:26:56.248Z,18.10
2019-02-25T14:29:26.193Z,18.03
2019-02-25T14:31:50.950Z,17.95
2019-02-25T14:34:15.178Z,17.76
2019-02-25T14:36:41.492Z,17.77
2019-02-25T14:39:07.801Z,17.66
2019-02-25T14:41:34.121Z,17.59
2019-02-25T14:44:00.432Z,17.51
2019-02-25T14:46:26.884Z,17.42
2019-02-25T14:48:53.043Z,17.35
2019-02-25T14:51:19.360Z,17.24
2019-02-25T14:53:47.449Z,17.19
2019-02-25T14:56:12.012Z,17.11
2019-02-25T14:58:40.205Z,17.03
2019-02-25T15:01:04.611Z,16.95
2019-02-25T15:03:30.919Z,16.87
2019-02-25T15:05:59.143Z,16.78
2019-02-25T15:08:24.111Z,16.71
2019-02-25T15:10:49.855Z,16.62
2019-02-25T15:13:16.164Z,16.54
2019-02-25T15:15:44.082Z,16.47
2019-02-25T15:18:08.814Z,16.47
2019-02-25T15:20:35.111Z,15.02
2019-02-25T15:23:01.422Z,12.68
2019-02-25T15:25:31.178Z,11.86
2019-02-25T15:27:54.034Z,12.31
2019-02-25T15:30:20.709Z,13.03
2019-02-25T15:32:55.650Z,13.63
2019-02-25T15:35:12.944Z,14.07
2019-02-25T15:37:40.622Z,14.34
2019-02-25T15:40:05.560Z,14.56
2019-02-25T15:42:32.418Z,14.68
2019-02-25T15:44:58.199Z,14.80
2019-02-25T15:47:24.515Z,14.86
2019-02-25T15:49:50.823Z,14.77
2019-02-25T15:52:18.798Z,14.65
2019-02-25T15:54:43.796Z,14.74
2019-02-25T15:57:09.774Z,14.83
2019-02-25T15:59:36.091Z,14.89
2019-02-25T16:02:03.467Z,15.03
2019-02-25T16:04:30.214Z,15.41
2019-02-25T16:06:57.422Z,15.68
2019-02-25T16:09:23.830Z,15.89
2019-02-25T16:11:48.177Z,15.87
2019-02-25T16:14:14.514Z,15.74
2019-02-25T16:16:40.847Z,15.60
2019-02-25T16:19:07.221Z,15.48
2019-02-25T16:21:33.688Z,15.38
2019-02-25T16:24:02.023Z,15.31
2019-02-25T16:26:26.386Z,15.26
2019-02-25T16:28:53.214Z,15.22
2019-02-25T16:31:19.032Z,15.16
2019-02-25T16:33:46.723Z,15.11
2019-02-25T16:36:11.663Z,15.06
2019-02-25T16:38:38.065Z,15.05
2019-02-25T16:41:06.228Z,15.03
2019-02-25T16:43:31.497Z,15.00
2019-02-25T16:45:59.482Z,14.97
2019-02-25T16:48:26.058Z,14.96
2019-02-25T16:50:50.664Z,15.11
2019-02-25T16:53:18.295Z,15.06
2019-02-25T16:55:45.069Z,14.90
2019-02-25T16:58:12.917Z,14.75
2019-02-25T17:00:37.261Z,14.62
2019-02-25T17:03:04.303Z,14.49
2019-02-25T17:05:28.631Z,14.39
2019-02-25T17:07:56.106Z,14.31
2019-02-25T17:10:24.148Z,14.23
2019-02-25T17:12:48.270Z,14.15
2019-02-25T17:15:14.000Z,14.08
2019-02-25T17:17:40.313Z,14.02
2019-02-25T17:20:10.509Z,13.95
2019-02-25T17:22:33.327Z,13.88
2019-02-25T17:25:00.306Z,13.81
2019-02-25T17:27:25.942Z,13.76
2019-02-25T17:29:53.851Z,13.71
2019-02-25T17:32:19.374Z,13.64
2019-02-25T17:34:44.873Z,13.57
2019-02-25T17:37:12.639Z,13.53
2019-02-25T17:39:38.029Z,13.48
2019-02-25T17:42:05.582Z,13.44
2019-02-25T17:44:32.025Z,13.39
2019-02-25T17:46:57.926Z,13.35
2019-02-25T17:49:22.799Z,13.29
2019-02-25T17:51:51.143Z,13.25
2019-02-25T17:54:16.877Z,13.20
2019-02-25T17:56:43.147Z,13.17
2019-02-25T17:59:09.634Z,13.07
2019-02-25T18:01:34.341Z,13.08
2019-02-25T18:04:02.539Z,13.05
2019-02-25T18:06:30.148Z,13.01
2019-02-25T18:08:55.293Z,12.96
2019-02-25T18:11:20.285Z,12.92
2019-02-25T18:13:46.779Z,12.88
2019-02-25T18:16:14.009Z,12.83
2019-02-25T18:18:39.178Z,12.81
2019-02-25T18:21:06.369Z,12.77
2019-02-25T18:23:31.180Z,12.73
2019-02-25T18:25:58.737Z,12.70
2019-02-25T18:28:23.812Z,12.67
2019-02-25T18:30:50.122Z,12.63
2019-02-25T18:33:17.409Z,12.56
2019-02-25T18:35:43.433Z,12.54
2019-02-25T18:38:09.637Z,12.51
2019-02-25T18:40:36.462Z,12.46
2019-02-25T18:43:02.362Z,12.43
2019-02-25T18:45:29.047Z,12.39
2019-02-25T18:47:55.419Z,12.37
2019-02-25T18:50:22.220Z,12.33
2019-02-25T18:52:48.056Z,12.30
2019-02-25T18:55:14.432Z,12.25
2019-02-25T18:57:41.709Z,12.22
2019-02-25T19:00:07.065Z,12.15
2019-02-25T19:02:33.697Z,12.15
2019-02-25T19:05:01.420Z,12.12
2019-02-25T19:07:27.308Z,12.07
2019-02-25T19:09:53.856Z,12.05
2019-02-25T19:12:18.643Z,12.01
2019-02-25T19:14:44.976Z,11.96
2019-02-25T19:17:11.291Z,11.93
2019-02-25T19:19:38.465Z,11.89
2019-02-25T19:22:05.870Z,11.87
2019-02-25T19:24:33.258Z,11.84
2019-02-25T19:26:56.564Z,11.79
2019-02-25T19:29:23.837Z,11.78
2019-02-25T19:31:49.352Z,11.74
2019-02-25T19:34:16.725Z,11.69
2019-02-25T19:36:43.061Z,11.67
2019-02-25T19:39:10.049Z,11.63
2019-02-25T19:41:35.863Z,11.60
2019-02-25T19:44:04.111Z,11.55
2019-02-25T19:46:28.381Z,11.54
2019-02-25T19:48:56.009Z,11.49
2019-02-25T19:51:22.876Z,11.47
2019-02-25T19:53:47.543Z,11.45
2019-02-25T19:56:13.632Z,11.43
2019-02-25T19:58:41.110Z,11.49
2019-02-25T20:01:08.451Z,11.68
2019-02-25T20:03:33.067Z,11.67
2019-02-25T20:05:58.897Z,11.60
2019-02-25T20:08:25.194Z,11.54
2019-02-25T20:10:54.352Z,11.46
2019-02-25T20:13:17.849Z,11.40
2019-02-25T20:15:46.321Z,11.32
2019-02-25T20:18:11.792Z,11.29
2019-02-25T20:20:38.448Z,11.25
2019-02-25T20:23:04.407Z,11.21
2019-02-25T20:25:29.481Z,11.18
2019-02-25T20:27:59.896Z,11.16
2019-02-25T20:30:23.692Z,11.12
2019-02-25T20:32:48.430Z,11.08
2019-02-25T20:35:15.741Z,11.02
2019-02-25T20:37:41.149Z,10.96
2019-02-25T20:40:07.459Z,10.96
2019-02-25T20:42:33.798Z,10.92
2019-02-25T20:45:02.440Z,10.88
2019-02-25T20:47:28.503Z,10.86
2019-02-25T20:49:55.619Z,10.84
2019-02-25T20:52:20.225Z,10.80
2019-02-25T20:54:47.206Z,10.77
2019-02-25T20:57:12.577Z,10.75
2019-02-25T20:59:38.002Z,10.71
2019-02-25T21:02:07.188Z,10.66
2019-02-25T21:04:30.604Z,10.64
2019-02-25T21:06:56.916Z,10.61
2019-02-25T21:09:23.224Z,10.59
2019-02-25T21:11:49.570Z,10.57
2019-02-25T21:14:15.881Z,10.55
2019-02-25T21:16:42.225Z,10.47
2019-02-25T21:19:10.798Z,10.47
2019-02-25T21:21:36.728Z,10.44
2019-02-25T21:24:01.912Z,10.41
2019-02-25T21:26:29.468Z,10.36
2019-02-25T21:28:55.969Z,10.35
2019-02-25T21:31:21.383Z,10.30
2019-02-25T21:33:49.866Z,10.31
2019-02-25T21:36:12.743Z,10.26
2019-02-25T21:38:39.054Z,10.25
2019-02-25T21:41:06.976Z,10.22
2019-02-25T21:43:31.703Z,10.20
2019-02-25T21:46:00.956Z,10.16
2019-02-25T21:48:25.632Z,10.13
2019-02-25T21:50:50.648Z,10.11
2019-02-25T21:53:18.397Z,10.08
2019-02-25T21:55:43.351Z,10.05
2019-02-25T21:58:09.647Z,10.02
2019-02-25T22:00:38.603Z,10.00
2019-02-25T22:03:05.987Z,9.96
2019-02-25T22:05:28.610Z,9.90
2019-02-25T22:07:57.316Z,9.90
2019-02-25T22:10:21.239Z,9.89
2019-02-25T22:12:47.549Z,9.86
2019-02-25T22:15:15.905Z,9.84
2019-02-25T22:17:40.705Z,9.83
2019-02-25T22:20:09.555Z,9.82
2019-02-25T22:22:33.231Z,9.78
2019-02-25T22:25:04.078Z,9.74
2019-02-25T22:27:25.462Z,9.73
2019-02-25T22:29:51.804Z,9.71
2019-02-25T22:32:18.111Z,9.66
2019-02-25T22:34:44.416Z,9.64
2019-02-25T22:37:14.505Z,9.62
2019-02-25T22:39:38.380Z,9.60
2019-02-25T22:42:05.209Z,9.57
2019-02-25T22:44:31.761Z,9.55
2019-02-25T22:46:56.012Z,9.52
2019-02-25T22:49:24.094Z,9.51
2019-02-25T22:51:51.699Z,9.49
2019-02-25T22:54:17.040Z,9.47
2019-02-25T22:56:41.270Z,9.43
2019-02-25T22:59:07.585Z,9.40
2019-02-25T23:01:36.825Z,9.38
2019-02-25T23:04:00.263Z,9.35
2019-02-25T23:06:26.574Z,9.33
2019-02-25T23:08:53.304Z,9.33
2019-02-25T23:11:21.491Z,9.27
2019-02-25T23:13:47.447Z,9.28
2019-02-25T23:16:13.235Z,9.25
2019-02-25T23:18:38.143Z,9.22
2019-02-25T23:21:04.443Z,9.20
2019-02-25T23:23:32.883Z,9.19
2019-02-25T23:25:58.488Z,9.18
2019-02-25T23:28:25.410Z,9.15
2019-02-25T23:30:49.764Z,9.12
2019-02-25T23:33:17.430Z,9.09
2019-02-25T23:35:44.705Z,9.06
2019-02-25T23:38:08.735Z,9.06
2019-02-25T23:40:35.972Z,9.05
2019-02-25T23:43:03.224Z,9.01
2019-02-25T23:45:27.668Z,9.01
2019-02-25T23:47:57.634Z,9.00
2019-02-25T23:50:20.291Z,8.97
2019-02-25T23:52:46.633Z,8.94
2019-02-25T23:55:16.525Z,8.91
2019-02-25T23:57:39.265Z,8.88
